Time;durP1;ratioP1;P1;durP2;ratioP2;P2;SDS_P1;SDS_P2;PMS_P1;PMS_P2;Temp;Humidity;BMP_temperature;BMP_pressure;BME280_temperature;BME280_humidity;BME280_pressure;Samples;Min_cycle;Max_cycle;Signal;HPM_P1;HPM_P2
2021/12/15 00:02:19;;;;;;;;;;;;;;;10.15;75.87;102865.34;5046927;28;19951;-60
2021/12/15 00:04:45;;;;;;;;;;;;;;;10.14;75.91;102869.19;5053770;28;19920;-60
2021/12/15 00:07:10;;;;;;;;;;;;;;;10.10;76.02;102856.78;5053738;28;20007;-60
2021/12/15 00:09:35;;;;;;;;;;;;;;;10.07;76.22;102866.34;5054206;28;19959;-60
2021/12/15 00:12:03;;;;;;;;;;;;;;;10.07;76.05;102858.03;5052053;28;20375;-60
2021/12/15 00:14:29;;;;;;;;;;;;;;;10.08;76.13;102856.97;5052628;28;19928;-60
2021/12/15 00:16:54;;;;;;;;;;;;;;;10.09;76.22;102849.50;5053604;28;19925;-60
2021/12/15 00:19:20;;;;;;;;;;;;;;;10.08;76.12;102859.75;5054797;28;19924;-60
2021/12/15 00:21:45;;;;;;;;;;;;;;;10.10;76.13;102851.25;5053906;28;19921;-61
2021/12/15 00:24:11;;;;;;;;;;;;;;;10.09;75.78;102850.34;5053007;28;19924;-60
2021/12/15 00:26:36;;;;;;;;;;;;;;;10.09;76.06;102850.34;5053478;28;19921;-60
2021/12/15 00:29:04;;;;;;;;;;;;;;;10.07;75.97;102855.25;5046624;28;20311;-60
2021/12/15 00:31:32;;;;;;;;;;;;;;;10.08;76.21;102847.78;5054617;28;19920;-60
2021/12/15 00:33:57;;;;;;;;;;;;;;;10.08;76.17;102851.41;5053103;28;19921;-60
2021/12/15 00:36:23;;;;;;;;;;;;;;;10.09;76.20;102849.50;5053522;28;20265;-60
2021/12/15 00:38:48;;;;;;;;;;;;;;;10.07;76.28;102852.50;5053915;28;20288;-60
2021/12/15 00:41:13;;;;;;;;;;;;;;;10.08;76.17;102854.19;5054193;28;19970;-60
2021/12/15 00:43:39;;;;;;;;;;;;;;;10.09;76.27;102855.91;5049024;28;19932;-60
2021/12/15 00:46:05;;;;;;;;;;;;;;;10.08;76.20;102848.66;5049726;28;19936;-60
2021/12/15 00:48:30;;;;;;;;;;;;;;;10.08;76.19;102851.41;5036216;28;19917;-60
2021/12/15 00:50:55;;;;;;;;;;;;;;;10.08;76.21;102843.09;5046041;28;19935;-60
2021/12/15 00:53:20;;;;;;;;;;;;;;;10.09;76.39;102844.81;5053089;28;20372;-60
2021/12/15 00:55:46;;;;;;;;;;;;;;;10.10;76.02;102848.47;5053178;28;20372;-60
2021/12/15 00:58:11;;;;;;;;;;;;;;;10.09;76.15;102849.50;5053022;28;19927;-60
2021/12/15 01:00:39;;;;;;;;;;;;;;;10.10;76.23;102845.69;5053242;28;20374;-60
2021/12/15 01:03:04;;;;;;;;;;;;;;;10.09;76.22;102836.47;5050188;28;19927;-60
2021/12/15 01:05:33;;;;;;;;;;;;;;;10.08;76.16;102837.53;5051030;28;19921;-60
2021/12/15 01:08:00;;;;;;;;;;;;;;;10.09;76.15;102839.25;5053365;28;19921;-60
2021/12/15 01:10:33;;;;;;;;;;;;;;;10.09;76.27;102853.13;5053143;28;19917;-60
2021/12/15 01:20:59;;;;;;;;;;;;;;;10.06;76.56;102856.34;5051811;28;19928;-60
2021/12/15 01:23:27;;;;;;;;;;;;;;;10.05;76.10;102853.75;5045473;28;19921;-60
2021/12/15 01:25:55;;;;;;;;;;;;;;;10.05;76.36;102860.13;5052612;28;19950;-60
2021/12/15 01:28:21;;;;;;;;;;;;;;;10.08;76.41;102856.13;5051826;28;20322;-60
2021/12/15 01:30:47;;;;;;;;;;;;;;;10.08;76.19;102856.97;5053017;28;19924;-60
2021/12/15 01:33:13;;;;;;;;;;;;;;;10.08;76.56;102851.41;5051818;28;19970;-60
2021/12/15 01:35:41;;;;;;;;;;;;;;;10.08;76.40;102854.19;5053675;28;20054;-60
2021/12/15 01:38:06;;;;;;;;;;;;;;;10.09;76.27;102850.34;5050260;28;19974;-60
2021/12/15 01:40:36;;;;;;;;;;;;;;;10.08;76.55;102845.88;5052078;28;20022;-60
2021/12/15 01:43:04;;;;;;;;;;;;;;;10.08;76.38;102854.19;5051835;28;19928;-60
2021/12/15 01:48:14;;;;;;;;;;;;;;;10.11;76.35;102860.41;5049960;28;19928;-60
2021/12/15 01:50:40;;;;;;;;;;;;;;;10.09;75.88;102855.91;5052611;28;20393;-61
2021/12/15 01:53:07;;;;;;;;;;;;;;;10.09;76.73;102861.44;5051739;28;19927;-60
2021/12/15 01:55:32;;;;;;;;;;;;;;;10.06;76.40;102859.09;5050418;28;19921;-60
2021/12/15 01:57:58;;;;;;;;;;;;;;;10.06;76.29;102859.09;5044734;28;19928;-60
2021/12/15 02:00:30;;;;;;;;;;;;;;;10.05;76.40;102862.06;5031955;28;19921;-60
2021/12/15 02:02:57;;;;;;;;;;;;;;;10.04;76.29;102858.44;5032496;28;20021;-60
2021/12/15 02:05:22;;;;;;;;;;;;;;;10.05;76.38;102865.69;5030921;28;20433;-60
2021/12/15 02:07:48;;;;;;;;;;;;;;;10.06;76.59;102869.31;5030884;28;19964;-60
2021/12/15 02:10:14;;;;;;;;;;;;;;;10.08;76.36;102870.00;5030340;28;20427;-60
2021/12/15 02:12:42;;;;;;;;;;;;;;;10.10;76.30;102879.00;5032714;28;19917;-60
2021/12/15 02:15:09;;;;;;;;;;;;;;;10.09;76.28;102880.03;5031392;28;19927;-60
2021/12/15 02:17:35;;;;;;;;;;;;;;;10.08;76.44;102887.50;5031744;28;19924;-60
2021/12/15 02:20:01;;;;;;;;;;;;;;;10.08;76.28;102886.63;5031721;28;19921;-60
2021/12/15 02:22:28;;;;;;;;;;;;;;;10.09;76.33;102889.19;5034390;28;19922;-60
2021/12/15 02:24:54;;;;;;;;;;;;;;;10.09;76.19;102878.09;5032759;28;19921;-60
2021/12/15 02:27:20;;;;;;;;;;;;;;;10.10;76.57;102879.00;5031661;28;20011;-60
2021/12/15 02:29:49;;;;;;;;;;;;;;;10.10;76.34;102881.75;5030452;28;20426;-60
2021/12/15 02:32:24;;;;;;;;;;;;;;;10.11;76.31;102879.84;5032047;28;20354;-60
2021/12/15 02:37:33;;;;;;;;;;;;;;;10.09;76.39;102882.78;5031743;28;19967;-60
2021/12/15 02:40:03;;;;;;;;;;;;;;;10.11;76.09;102874.28;5032278;28;20335;-60
2021/12/15 02:42:29;;;;;;;;;;;;;;;10.10;76.27;102879.00;5031761;28;19943;-60
2021/12/15 02:44:55;;;;;;;;;;;;;;;10.09;76.47;102872.56;5030317;28;19972;-60
2021/12/15 02:47:23;;;;;;;;;;;;;;;10.12;76.37;102878.78;5031922;28;20391;-60
2021/12/15 02:49:53;;;;;;;;;;;;;;;10.11;76.48;102875.16;5031748;28;19930;-60
2021/12/15 02:52:18;;;;;;;;;;;;;;;10.12;76.17;102876.00;5033760;28;19921;-60
2021/12/15 02:54:43;;;;;;;;;;;;;;;10.13;76.44;102874.94;5034264;28;20532;-60
2021/12/15 02:57:12;;;;;;;;;;;;;;;10.13;76.58;102880.47;5036232;28;19921;-61
2021/12/15 03:00:16;;;;;;;;;;;;;;;10.14;76.22;102879.41;5056253;28;19923;-60
2021/12/15 03:03:01;;;;;;;;;;;;;;;10.13;76.36;102878.56;5050571;28;20390;-61
2021/12/15 03:05:24;;;;;;;;;;;;;;;10.14;76.32;102880.31;5054205;28;19921;-60
2021/12/15 03:08:06;;;;;;;;;;;;;;;10.15;76.28;102870.06;5055931;28;19920;-60
2021/12/15 03:16:00;;;;;;;;;;;;;;;10.14;76.29;102866.44;5054390;28;19928;-60
2021/12/15 03:18:26;;;;;;;;;;;;;;;10.13;76.38;102869.38;5054729;28;20295;-60
2021/12/15 03:20:56;;;;;;;;;;;;;;;10.14;76.37;102868.31;5053445;28;20013;-61
2021/12/15 03:23:25;;;;;;;;;;;;;;;10.11;76.43;102877.91;5052560;28;19924;-60
2021/12/15 03:25:51;;;;;;;;;;;;;;;10.11;76.34;102868.75;5055759;28;19943;-60
2021/12/15 03:36:35;;;;;;;;;;;;;;;10.14;76.45;102879.41;5054549;28;19921;-60
2021/12/15 03:39:01;;;;;;;;;;;;;;;10.14;76.25;102873.88;5052522;28;19982;-60
2021/12/15 03:41:26;;;;;;;;;;;;;;;10.13;76.47;102866.59;5054692;28;20400;-60
2021/12/15 03:43:51;;;;;;;;;;;;;;;10.13;76.16;102873.00;5054266;28;19997;-60
2021/12/15 03:46:16;;;;;;;;;;;;;;;10.14;76.51;102879.41;5052666;28;20014;-60
2021/12/15 03:48:43;;;;;;;;;;;;;;;10.14;76.26;102874.75;5055293;28;19917;-60
2021/12/15 03:51:09;;;;;;;;;;;;;;;10.14;76.49;102873.88;5054053;28;19936;-60
2021/12/15 03:53:34;;;;;;;;;;;;;;;10.13;76.42;102874.94;5054575;28;19921;-60
2021/12/15 03:56:01;;;;;;;;;;;;;;;10.13;76.38;102878.56;5053773;28;20376;-60
2021/12/15 03:58:26;;;;;;;;;;;;;;;10.12;76.56;102873.22;5052852;28;19921;-60
2021/12/15 04:00:58;;;;;;;;;;;;;;;10.11;76.47;102885.38;5053337;28;19921;-60
2021/12/15 04:03:26;;;;;;;;;;;;;;;10.09;76.57;102886.44;5054079;28;19921;-60
2021/12/15 04:05:51;;;;;;;;;;;;;;;10.11;76.55;102890.94;5053864;28;20656;-60
2021/12/15 04:08:16;;;;;;;;;;;;;;;10.11;76.42;102888.16;5054289;28;19921;-60
2021/12/15 04:10:41;;;;;;;;;;;;;;;10.11;76.53;102888.16;5054363;28;19921;-60
2021/12/15 04:13:09;;;;;;;;;;;;;;;10.13;76.62;102888.81;5053207;28;19921;-60
2021/12/15 04:15:43;;;;;;;;;;;;;;;10.14;76.42;102884.97;5051118;28;19947;-60
2021/12/15 04:18:08;;;;;;;;;;;;;;;10.15;76.58;102892.25;5054911;28;19928;-60
2021/12/15 04:20:34;;;;;;;;;;;;;;;10.14;76.62;102891.41;5052716;28;20265;-60
2021/12/15 04:23:00;;;;;;;;;;;;;;;10.15;76.26;102892.25;5053667;28;19932;-60
2021/12/15 04:25:27;;;;;;;;;;;;;;;10.15;76.48;102897.81;5053995;28;20391;-60
2021/12/15 04:27:58;;;;;;;;;;;;;;;10.15;76.55;102886.69;5053115;28;19971;-60
2021/12/15 04:30:26;;;;;;;;;;;;;;;10.14;76.46;102902.50;5053447;28;20003;-60
2021/12/15 04:32:52;;;;;;;;;;;;;;;10.14;76.72;102891.41;5051039;28;19921;-60
2021/12/15 04:35:17;;;;;;;;;;;;;;;10.14;76.53;102896.06;5052579;28;19921;-60
2021/12/15 04:37:42;;;;;;;;;;;;;;;10.16;76.37;102899.50;5053833;28;19936;-60
2021/12/15 04:40:09;;;;;;;;;;;;;;;10.16;76.66;102899.50;5055810;28;19921;-60
2021/12/15 04:42:37;;;;;;;;;;;;;;;10.16;76.60;102905.06;5055212;28;19947;-60
2021/12/15 04:45:02;;;;;;;;;;;;;;;10.17;76.49;102904.00;5052836;28;19931;-60
2021/12/15 04:47:28;;;;;;;;;;;;;;;10.16;76.68;102905.06;5052637;28;20007;-60
2021/12/15 04:49:54;;;;;;;;;;;;;;;10.14;76.70;102904.38;5050538;28;19927;-60
2021/12/15 04:52:21;;;;;;;;;;;;;;;10.13;76.58;102905.44;5052353;28;19975;-60
2021/12/15 04:54:47;;;;;;;;;;;;;;;10.12;76.68;102914.84;5049936;28;19967;-60
2021/12/15 04:57:13;;;;;;;;;;;;;;;10.12;76.64;102914.84;5052796;28;20323;-61
2021/12/15 04:59:38;;;;;;;;;;;;;;;10.12;76.63;102910.16;5053778;28;19928;-60
2021/12/15 05:02:04;;;;;;;;;;;;;;;10.13;76.63;102911.00;5052532;28;19924;-60
2021/12/15 05:04:30;;;;;;;;;;;;;;;10.12;76.45;102914.84;5047585;28;20288;-60
2021/12/15 05:06:55;;;;;;;;;;;;;;;10.13;76.57;102919.34;5034149;28;19917;-60
2021/12/15 05:09:20;;;;;;;;;;;;;;;10.13;76.63;102914.63;5044633;28;19921;-60
2021/12/15 05:11:47;;;;;;;;;;;;;;;10.14;76.72;102916.38;5053137;28;19923;-60
2021/12/15 05:14:12;;;;;;;;;;;;;;;10.16;76.63;102910.63;5052909;28;19924;-60
2021/12/15 05:16:38;;;;;;;;;;;;;;;10.15;76.51;102915.31;5051816;28;20277;-60
2021/12/15 05:19:07;;;;;;;;;;;;;;;10.16;76.30;102921.72;5053067;28;20002;-60
2021/12/15 05:21:32;;;;;;;;;;;;;;;10.16;76.63;102917.00;5053140;28;20391;-60
2021/12/15 05:24:02;;;;;;;;;;;;;;;10.15;76.55;102925.56;5052396;28;19921;-60
2021/12/15 05:26:29;;;;;;;;;;;;;;;10.17;76.54;102931.75;5050547;28;20021;-61
2021/12/15 05:28:54;;;;;;;;;;;;;;;10.17;76.58;102928.97;5053736;28;19917;-60
2021/12/15 05:31:19;;;;;;;;;;;;;;;10.17;76.45;102928.97;5052550;28;19928;-60
2021/12/15 05:33:44;;;;;;;;;;;;;;;10.18;76.65;102936.22;5052901;28;19920;-60
2021/12/15 05:36:10;;;;;;;;;;;;;;;10.17;76.63;102931.75;5052033;28;20331;-60
2021/12/15 05:38:35;;;;;;;;;;;;;;;10.16;76.56;102922.56;5051105;28;20023;-61
2021/12/15 05:41:01;;;;;;;;;;;;;;;10.16;76.54;102933.66;5051332;28;19920;-60
2021/12/15 05:43:26;;;;;;;;;;;;;;;10.15;76.41;102931.09;5050057;28;20291;-60
2021/12/15 05:45:51;;;;;;;;;;;;;;;10.14;76.53;102932.13;5048618;28;19925;-60
2021/12/15 05:48:18;;;;;;;;;;;;;;;10.15;76.55;102928.31;5052106;28;19974;-60
2021/12/15 05:50:44;;;;;;;;;;;;;;;10.15;76.55;102931.97;5048515;28;20280;-60
2021/12/15 05:53:09;;;;;;;;;;;;;;;10.15;76.45;102933.88;5043652;28;19921;-60
2021/12/15 05:55:34;;;;;;;;;;;;;;;10.16;76.52;102932.81;5050780;28;20034;-60
2021/12/15 05:58:00;;;;;;;;;;;;;;;10.15;76.58;102926.41;5049481;28;19928;-60
2021/12/15 06:00:27;;;;;;;;;;;;;;;10.15;76.60;102931.09;5050476;28;19921;-60
2021/12/15 06:02:53;;;;;;;;;;;;;;;10.15;76.61;102925.56;5049819;28;20381;-60
2021/12/15 06:05:18;;;;;;;;;;;;;;;10.14;76.63;102933.03;5048289;28;19928;-60
2021/12/15 06:07:43;;;;;;;;;;;;;;;10.16;76.62;102932.81;5052117;28;19921;-60
2021/12/15 06:10:12;;;;;;;;;;;;;;;10.17;76.62;102935.38;5051470;28;19927;-60
2021/12/15 06:12:37;;;;;;;;;;;;;;;10.18;76.50;102939.00;5049484;28;19921;-61
2021/12/15 06:15:03;;;;;;;;;;;;;;;10.17;76.62;102932.59;5051736;28;19920;-60
2021/12/15 06:17:28;;;;;;;;;;;;;;;10.17;76.51;102940.94;5050777;28;19921;-61
2021/12/15 06:19:54;;;;;;;;;;;;;;;10.19;76.54;102935.19;5049054;28;19931;-61
2021/12/15 06:22:24;;;;;;;;;;;;;;;10.18;76.49;102939.88;5049418;28;19917;-60
2021/12/15 06:24:50;;;;;;;;;;;;;;;10.19;76.58;102943.53;5051321;28;19927;-60
2021/12/15 06:27:18;;;;;;;;;;;;;;;10.18;76.65;102952.88;5048543;28;20358;-60
2021/12/15 06:29:44;;;;;;;;;;;;;;;10.18;76.45;102947.31;5049549;28;19947;-60
2021/12/15 06:32:09;;;;;;;;;;;;;;;10.19;76.47;102949.06;5055463;28;19916;-60
2021/12/15 06:34:34;;;;;;;;;;;;;;;10.19;76.74;102960.16;5051644;28;19928;-60
2021/12/15 06:37:00;;;;;;;;;;;;;;;10.20;76.66;102956.34;5054960;28;19927;-60
2021/12/15 06:39:25;;;;;;;;;;;;;;;10.20;76.49;102948.84;5056272;28;20375;-60
2021/12/15 06:41:51;;;;;;;;;;;;;;;10.18;76.66;102959.31;5054205;28;19986;-60
2021/12/15 06:44:16;;;;;;;;;;;;;;;10.18;76.77;102958.44;5055203;28;20333;-60
2021/12/15 06:59:56;;;;;;;;;;;;;;;10.16;76.67;102961.41;5049628;28;19921;-60
2021/12/15 07:02:22;;;;;;;;;;;;;;;10.16;76.72;102957.78;5053228;28;19966;-60
2021/12/15 07:04:47;;;;;;;;;;;;;;;10.18;76.66;102961.19;5053026;28;19975;-60
2021/12/15 07:07:12;;;;;;;;;;;;;;;10.19;76.52;102971.28;5050728;28;19917;-60
2021/12/15 07:09:38;;;;;;;;;;;;;;;10.19;76.80;102976.81;5053107;28;19921;-60
2021/12/15 07:12:04;;;;;;;;;;;;;;;10.19;76.89;102979.59;5055054;28;19921;-60
2021/12/15 07:14:29;;;;;;;;;;;;;;;10.17;76.98;102982.56;5060340;28;19921;-60
2021/12/15 07:16:57;;;;;;;;;;;;;;;10.17;76.61;102990.88;5052682;28;20349;-60
2021/12/15 07:22:16;;;;;;;;;;;;;;;10.17;76.86;102976.16;5053257;28;20368;-60
2021/12/15 07:24:42;;;;;;;;;;;;;;;10.18;76.77;102986.19;5050427;28;19927;-59
2021/12/15 07:27:07;;;;;;;;;;;;;;;10.19;76.82;102987.94;5054860;28;19917;-59
2021/12/15 07:29:33;;;;;;;;;;;;;;;10.17;76.88;102985.31;5050980;28;19920;-60
2021/12/15 07:31:58;;;;;;;;;;;;;;;10.18;76.72;102986.19;5052396;28;19967;-60
2021/12/15 07:34:23;;;;;;;;;;;;;;;10.18;76.66;102998.16;5051971;28;19921;-60
2021/12/15 07:36:49;;;;;;;;;;;;;;;10.19;76.91;102991.56;5043999;28;19932;-59
2021/12/15 07:39:15;;;;;;;;;;;;;;;10.19;76.63;102993.47;5045865;28;20332;-59
2021/12/15 07:41:49;;;;;;;;;;;;;;;10.19;76.82;102993.47;5045212;28;19924;-59
2021/12/15 07:44:15;;;;;;;;;;;;;;;10.19;76.81;102996.25;5047060;28;19924;-59
2021/12/15 07:46:41;;;;;;;;;;;;;;;10.18;76.90;102998.16;5047769;28;19943;-59
2021/12/15 07:49:06;;;;;;;;;;;;;;;10.18;76.93;102988.97;5047203;28;20364;-59
2021/12/15 07:51:32;;;;;;;;;;;;;;;10.20;76.83;102989.63;5048234;28;19928;-59
2021/12/15 07:53:57;;;;;;;;;;;;;;;10.20;76.92;102990.50;5048537;28;19932;-59
2021/12/15 07:56:22;;;;;;;;;;;;;;;10.20;76.53;102996.03;5044819;28;20497;-59
2021/12/15 07:58:48;;;;;;;;;;;;;;;10.18;76.83;103000.94;5045680;28;19931;-59
2021/12/15 08:01:13;;;;;;;;;;;;;;;10.19;76.96;103001.81;5051553;28;19921;-58
2021/12/15 08:03:39;;;;;;;;;;;;;;;10.20;76.91;103000.72;5050740;28;20506;-58
2021/12/15 08:06:04;;;;;;;;;;;;;;;10.17;76.97;102996.44;5047718;28;19929;-59
2021/12/15 08:08:30;;;;;;;;;;;;;;;10.15;76.80;103004.09;5048686;28;20050;-59
2021/12/15 08:10:56;;;;;;;;;;;;;;;10.17;76.91;103006.69;5049225;28;19924;-58
2021/12/15 08:13:30;;;;;;;;;;;;;;;10.18;76.98;103005.59;5048690;28;19925;-59
2021/12/15 08:15:55;;;;;;;;;;;;;;;10.18;77.01;103000.94;5047767;28;20731;-58
2021/12/15 08:18:20;;;;;;;;;;;;;;;10.18;76.88;103017.59;5049602;28;19974;-59
2021/12/15 08:20:46;;;;;;;;;;;;;;;10.19;76.84;103015.69;5050080;28;19924;-59
2021/12/15 08:23:11;;;;;;;;;;;;;;;10.21;76.77;103019.09;5048068;28;19940;-60
2021/12/15 08:25:38;;;;;;;;;;;;;;;10.19;76.65;103012.91;5047813;28;20663;-59
2021/12/15 08:28:04;;;;;;;;;;;;;;;10.17;76.99;103015.84;5049028;28;19936;-60
2021/12/15 08:30:30;;;;;;;;;;;;;;;10.17;76.84;103017.78;5049706;28;19921;-59
2021/12/15 08:32:56;;;;;;;;;;;;;;;10.18;76.92;103005.59;5047169;28;20420;-59
2021/12/15 08:35:24;;;;;;;;;;;;;;;10.21;77.01;103010.78;5048975;28;19921;-59
2021/12/15 08:37:49;;;;;;;;;;;;;;;10.22;77.12;103016.13;5050514;28;20498;-59
2021/12/15 08:40:17;;;;;;;;;;;;;;;10.23;76.97;103017.00;5048855;28;20015;-59
2021/12/15 08:42:42;;;;;;;;;;;;;;;10.22;76.99;103018.91;5046754;28;19924;-58
2021/12/15 08:45:09;;;;;;;;;;;;;;;10.23;76.87;103017.00;5049018;28;19936;-59
2021/12/15 08:47:34;;;;;;;;;;;;;;;10.22;76.90;103018.91;5042922;28;20423;-59
2021/12/15 08:49:59;;;;;;;;;;;;;;;10.21;77.05;103016.31;5049162;28;20027;-59
2021/12/15 08:52:25;;;;;;;;;;;;;;;10.19;76.99;103015.69;5050093;28;19929;-60
2021/12/15 08:54:50;;;;;;;;;;;;;;;10.20;77.06;103021.00;5050627;28;19921;-58
2021/12/15 08:57:15;;;;;;;;;;;;;;;10.22;76.92;103020.84;5042717;28;20394;-58
2021/12/15 08:59:40;;;;;;;;;;;;;;;10.23;77.03;103025.31;5050271;28;20268;-58
2021/12/15 09:02:06;;;;;;;;;;;;;;;10.23;77.05;103025.31;5048054;28;20283;-58
2021/12/15 09:04:31;;;;;;;;;;;;;;;10.25;76.76;103029.63;5048191;28;20223;-59
2021/12/15 09:06:57;;;;;;;;;;;;;;;10.26;76.94;103030.53;5045639;28;19921;-59
2021/12/15 09:09:22;;;;;;;;;;;;;;;10.28;77.10;103031.16;5049174;28;19925;-59
2021/12/15 09:11:49;;;;;;;;;;;;;;;10.25;77.07;103024.06;5049273;28;19936;-59
2021/12/15 09:14:14;;;;;;;;;;;;;;;10.26;77.20;103038.84;5052850;28;19921;-58
2021/12/15 09:16:42;;;;;;;;;;;;;;;10.27;76.87;103037.78;5054973;28;19921;-58
2021/12/15 09:19:07;;;;;;;;;;;;;;;10.27;77.08;103033.09;5048048;28;19939;-59
2021/12/15 09:21:33;;;;;;;;;;;;;;;10.28;77.12;103031.16;5054550;28;19968;-58
2021/12/15 09:23:59;;;;;;;;;;;;;;;10.31;77.15;103039.09;5049516;28;19971;-58
2021/12/15 09:26:24;;;;;;;;;;;;;;;10.31;77.04;103044.66;5050438;28;20015;-58
2021/12/15 09:28:50;;;;;;;;;;;;;;;10.32;77.16;103054.69;5061410;28;20431;-59
2021/12/15 09:31:16;;;;;;;;;;;;;;;10.33;77.15;103050.84;5061275;28;19924;-59
2021/12/15 09:33:42;;;;;;;;;;;;;;;10.35;77.29;103059.84;5046044;28;20383;-59
2021/12/15 09:36:08;;;;;;;;;;;;;;;10.38;77.23;103058.63;5050801;28;20420;-59
2021/12/15 09:38:34;;;;;;;;;;;;;;;10.39;77.18;103063.94;5051186;28;19921;-59
2021/12/15 09:41:01;;;;;;;;;;;;;;;10.39;77.11;103057.53;5052239;28;20351;-59
2021/12/15 09:43:28;;;;;;;;;;;;;;;10.39;76.95;103055.63;5051806;28;19929;-59
2021/12/15 09:46:01;;;;;;;;;;;;;;;10.39;77.13;103049.22;5045842;28;20019;-58
2021/12/15 09:56:24;;;;;;;;;;;;;;;10.39;77.07;103057.53;5053119;28;19929;-59
2021/12/15 10:02:34;;;;;;;;;;;;;;;10.42;77.18;103062.72;5049409;28;19932;-60
2021/12/15 10:05:13;;;;;;;;;;;;;;;10.41;77.49;103061.81;5046436;28;20430;-58
2021/12/15 10:10:46;;;;;;;;;;;;;;;10.39;77.29;103072.28;5049980;28;19967;-60
2021/12/15 10:18:55;;;;;;;;;;;;;;;10.47;77.41;103065.75;5049376;28;20319;-60
2021/12/15 10:21:25;;;;;;;;;;;;;;;10.47;77.25;103062.97;5054478;28;19921;-60
2021/12/15 10:23:51;;;;;;;;;;;;;;;10.47;77.54;103055.50;5052054;28;19921;-59
2021/12/15 10:26:16;;;;;;;;;;;;;;;10.49;77.50;103066.38;5044345;28;20292;-60
2021/12/15 10:28:43;;;;;;;;;;;;;;;10.49;77.50;103056.16;5041097;28;19925;-59
2021/12/15 10:31:11;;;;;;;;;;;;;;;10.49;77.83;103063.59;5039290;28;19921;-59
2021/12/15 10:33:41;;;;;;;;;;;;;;;10.47;77.81;103063.81;5052674;28;19921;-59
2021/12/15 10:36:11;;;;;;;;;;;;;;;10.48;77.46;103064.66;5045885;28;19920;-60
2021/12/15 10:38:41;;;;;;;;;;;;;;;10.51;77.56;103069.84;5045282;28;19925;-60
2021/12/15 10:41:08;;;;;;;;;;;;;;;10.51;77.66;103056.81;5040938;28;19928;-59
2021/12/15 10:43:39;;;;;;;;;;;;;;;10.50;77.40;103063.44;5052787;28;19928;-58
2021/12/15 10:46:07;;;;;;;;;;;;;;;10.53;77.50;103064.94;5051374;28;19921;-58
2021/12/15 10:48:36;;;;;;;;;;;;;;;10.55;77.79;103063.69;5048722;28;19921;-59
2021/12/15 10:51:04;;;;;;;;;;;;;;;10.60;77.63;103065.00;5045371;28;20292;-59
2021/12/15 10:53:31;;;;;;;;;;;;;;;10.60;77.57;103074.19;5045912;28;19921;-59
2021/12/15 10:55:57;;;;;;;;;;;;;;;10.63;77.50;103067.38;5051532;28;19921;-58
2021/12/15 10:58:36;;;;;;;;;;;;;;;10.63;77.31;103073.78;4992403;28;1703742;-58
2021/12/15 11:01:04;;;;;;;;;;;;;;;10.64;77.33;103069.09;5052571;28;19927;-58
2021/12/15 11:03:34;;;;;;;;;;;;;;;10.66;77.44;103072.56;5049215;28;20015;-58
2021/12/15 11:06:00;;;;;;;;;;;;;;;10.68;77.29;103078.75;5052361;28;19928;-59
2021/12/15 11:08:25;;;;;;;;;;;;;;;10.66;77.41;103070.63;5052338;28;19924;-60
2021/12/15 11:10:52;;;;;;;;;;;;;;;10.67;77.48;103071.47;5053701;28;19983;-60
2021/12/15 11:13:17;;;;;;;;;;;;;;;10.69;77.30;103072.13;5053550;28;19991;-61
2021/12/15 11:15:45;;;;;;;;;;;;;;;10.70;77.60;103065.53;5051310;28;20349;-60
2021/12/15 11:18:14;;;;;;;;;;;;;;;10.71;77.32;103065.31;5042813;28;20007;-61
2021/12/15 11:20:41;;;;;;;;;;;;;;;10.72;77.61;103060.63;5049906;28;20015;-61
2021/12/15 11:23:11;;;;;;;;;;;;;;;10.70;77.50;103054.44;5049215;28;19927;-61
2021/12/15 11:25:36;;;;;;;;;;;;;;;10.72;77.44;103063.41;5051456;28;19921;-61
2021/12/15 11:28:07;;;;;;;;;;;;;;;10.73;77.32;103059.59;5051884;28;19982;-61
2021/12/15 11:30:34;;;;;;;;;;;;;;;10.73;77.24;103067.91;5051906;28;19920;-61
2021/12/15 11:33:02;;;;;;;;;;;;;;;10.74;77.42;103058.50;5052588;28;20422;-61
2021/12/15 11:35:29;;;;;;;;;;;;;;;10.76;77.31;103060.00;5046570;28;19921;-61
2021/12/15 11:37:57;;;;;;;;;;;;;;;10.76;77.26;103062.78;5051235;28;19921;-61
2021/12/15 11:40:25;;;;;;;;;;;;;;;10.78;77.25;103054.28;5052208;28;19928;-61
2021/12/15 11:42:50;;;;;;;;;;;;;;;10.78;77.23;103051.50;5051515;28;19968;-60
2021/12/15 11:45:16;;;;;;;;;;;;;;;10.79;77.37;103054.06;5047290;28;20361;-61
2021/12/15 11:47:42;;;;;;;;;;;;;;;10.80;77.34;103052.13;5051209;28;19922;-61
2021/12/15 11:50:09;;;;;;;;;;;;;;;10.81;77.49;103056.66;5051436;28;19927;-62
2021/12/15 11:52:39;;;;;;;;;;;;;;;10.81;77.22;103059.44;5051831;28;19921;-61
2021/12/15 11:55:05;;;;;;;;;;;;;;;10.81;77.31;103059.44;5049417;28;19936;-61
2021/12/15 11:57:31;;;;;;;;;;;;;;;10.81;77.50;103053.88;5045595;28;21472;-61
2021/12/15 11:59:59;;;;;;;;;;;;;;;10.81;77.27;103057.50;5032148;28;19921;-61
2021/12/15 12:02:28;;;;;;;;;;;;;;;10.82;77.34;103050.03;5025697;28;19917;-61
2021/12/15 12:04:55;;;;;;;;;;;;;;;10.82;77.10;103050.88;5032664;28;19967;-61
2021/12/15 12:07:20;;;;;;;;;;;;;;;10.84;77.27;103050.69;5032343;28;19925;-61
2021/12/15 12:09:50;;;;;;;;;;;;;;;10.84;77.11;103050.69;5034972;28;19967;-61
2021/12/15 12:12:17;;;;;;;;;;;;;;;10.81;77.25;103046.41;5032746;28;19925;-61
2021/12/15 12:14:49;;;;;;;;;;;;;;;10.82;77.38;103047.25;5033305;28;20020;-61
2021/12/15 12:17:15;;;;;;;;;;;;;;;10.82;77.30;103039.78;5029381;28;19976;-61
2021/12/15 12:19:43;;;;;;;;;;;;;;;10.83;77.11;103035.06;5028504;28;20388;-61
2021/12/15 12:22:09;;;;;;;;;;;;;;;10.84;77.36;103031.22;5032212;28;20035;-62
2021/12/15 12:24:35;;;;;;;;;;;;;;;10.86;77.35;103039.38;5031093;28;20296;-62
2021/12/15 12:27:00;;;;;;;;;;;;;;;10.86;77.12;103040.25;5032115;28;19928;-61
2021/12/15 12:29:26;;;;;;;;;;;;;;;10.87;77.15;103046.66;5030431;28;19921;-61
2021/12/15 12:31:51;;;;;;;;;;;;;;;10.84;77.42;103036.78;5031601;28;20012;-61
2021/12/15 12:34:17;;;;;;;;;;;;;;;10.86;77.18;103031.06;5030394;28;19932;-61
2021/12/15 12:36:43;;;;;;;;;;;;;;;10.87;77.27;103028.06;5027210;28;19921;-61
2021/12/15 12:39:10;;;;;;;;;;;;;;;10.88;77.10;103024.22;5030406;28;20364;-61
2021/12/15 12:41:41;;;;;;;;;;;;;;;10.88;77.10;103026.97;5032042;28;19975;-61
2021/12/15 12:44:10;;;;;;;;;;;;;;;10.89;77.17;103027.88;5031841;28;19921;-60
2021/12/15 12:59:56;;;;;;;;;;;;;;;10.93;77.18;103012.50;5047361;28;19994;-60
2021/12/15 13:02:43;;;;;;;;;;;;;;;10.95;76.94;103016.78;5043799;28;19928;-60
2021/12/15 13:05:27;;;;;;;;;;;;;;;10.98;77.06;103012.75;5047534;28;19928;-60
2021/12/15 13:07:54;;;;;;;;;;;;;;;11.00;76.96;103011.50;5049368;28;20374;-60
2021/12/15 13:10:20;;;;;;;;;;;;;;;11.01;76.96;103002.09;5045878;28;20125;-60
2021/12/15 13:12:47;;;;;;;;;;;;;;;11.03;77.07;103008.28;5046933;28;19962;-60
2021/12/15 13:15:17;;;;;;;;;;;;;;;11.04;76.90;103009.16;5048844;28;19917;-60
2021/12/15 13:17:58;;;;;;;;;;;;;;;11.04;77.05;103009.16;5048784;28;19939;-60
2021/12/15 13:20:26;;;;;;;;;;;;;;;11.04;76.71;103007.25;5047316;28;19931;-60
2021/12/15 13:23:07;;;;;;;;;;;;;;;11.06;76.77;103007.88;5043543;28;19947;-60
2021/12/15 13:31:11;;;;;;;;;;;;;;;11.05;76.77;103014.50;5048910;28;19996;-60
2021/12/15 13:33:38;;;;;;;;;;;;;;;11.03;76.65;103013.84;5049311;28;19947;-60
2021/12/15 13:36:03;;;;;;;;;;;;;;;11.02;76.96;103026.03;5047261;28;20019;-60
2021/12/15 13:38:28;;;;;;;;;;;;;;;11.05;76.69;103035.91;5048217;28;20019;-60
2021/12/15 13:40:57;;;;;;;;;;;;;;;11.06;76.83;103029.28;5047233;28;19932;-61
2021/12/15 13:43:39;;;;;;;;;;;;;;;11.06;76.64;103021.78;5044006;28;19985;-61
2021/12/15 13:46:06;;;;;;;;;;;;;;;11.04;76.39;103023.94;5044994;28;19925;-61
2021/12/15 13:48:50;;;;;;;;;;;;;;;11.05;76.67;103027.56;5038084;28;19925;-60
2021/12/15 13:51:15;;;;;;;;;;;;;;;11.06;76.67;103024.56;5045904;28;19928;-61
2021/12/15 13:53:40;;;;;;;;;;;;;;;11.08;76.80;103029.91;5048970;28;20011;-61
2021/12/15 13:56:05;;;;;;;;;;;;;;;11.07;76.70;103029.06;5047028;28;20277;-61
2021/12/15 13:58:31;;;;;;;;;;;;;;;11.08;76.69;103027.13;5044358;28;19925;-61